sensor_id;sensor_type;location;lat;lon;timestamp;P1;durP1;ratioP1;P2;durP2;ratioP2
10162;SDS011;5123;52.556;13.384;2022-11-09T00:02:32;3.47;;;3.03;;
10162;SDS011;5123;52.556;13.384;2022-11-09T00:05:05;4.07;;;3.57;;
10162;SDS011;5123;52.556;13.384;2022-11-09T00:07:38;4.93;;;3.70;;
10162;SDS011;5123;52.556;13.384;2022-11-09T00:10:11;5.00;;;3.30;;
10162;SDS011;5123;52.556;13.384;2022-11-09T00:12:45;4.40;;;3.07;;
10162;SDS011;5123;52.556;13.384;2022-11-09T00:15:18;4.23;;;3.20;;
10162;SDS011;5123;52.556;13.384;2022-11-09T00:17:52;3.17;;;2.87;;
10162;SDS011;5123;52.556;13.384;2022-11-09T00:20:24;4.30;;;3.00;;
10162;SDS011;5123;52.556;13.384;2022-11-09T00:22:57;3.83;;;3.17;;
10162;SDS011;5123;52.556;13.384;2022-11-09T00:29:11;3.63;;;3.27;;
10162;SDS011;5123;52.556;13.384;2022-11-09T00:31:50;4.83;;;2.83;;
10162;SDS011;5123;52.556;13.384;2022-11-09T00:34:24;5.90;;;3.57;;
10162;SDS011;5123;52.556;13.384;2022-11-09T00:36:57;4.30;;;3.43;;
10162;SDS011;5123;52.556;13.384;2022-11-09T00:39:29;4.97;;;2.90;;
10162;SDS011;5123;52.556;13.384;2022-11-09T00:42:04;3.60;;;3.00;;
10162;SDS011;5123;52.556;13.384;2022-11-09T00:44:37;5.73;;;3.10;;
10162;SDS011;5123;52.556;13.384;2022-11-09T00:47:10;5.47;;;2.90;;
10162;SDS011;5123;52.556;13.384;2022-11-09T00:49:44;3.10;;;2.80;;
10162;SDS011;5123;52.556;13.384;2022-11-09T00:52:16;4.00;;;3.53;;
10162;SDS011;5123;52.556;13.384;2022-11-09T00:54:49;4.03;;;3.00;;
10162;SDS011;5123;52.556;13.384;2022-11-09T00:57:22;4.07;;;3.67;;
10162;SDS011;5123;52.556;13.384;2022-11-09T00:59:54;4.53;;;3.43;;
10162;SDS011;5123;52.556;13.384;2022-11-09T01:02:27;4.60;;;3.20;;
10162;SDS011;5123;52.556;13.384;2022-11-09T01:05:01;3.83;;;2.90;;
10162;SDS011;5123;52.556;13.384;2022-11-09T01:07:35;9.13;;;2.83;;
10162;SDS011;5123;52.556;13.384;2022-11-09T01:10:07;3.33;;;2.77;;
10162;SDS011;5123;52.556;13.384;2022-11-09T01:12:40;4.33;;;3.30;;
10162;SDS011;5123;52.556;13.384;2022-11-09T01:15:13;2.77;;;2.50;;
10162;SDS011;5123;52.556;13.384;2022-11-09T01:17:45;3.20;;;2.63;;
10162;SDS011;5123;52.556;13.384;2022-11-09T01:20:20;3.03;;;2.73;;
10162;SDS011;5123;52.556;13.384;2022-11-09T01:22:54;4.80;;;2.70;;
10162;SDS011;5123;52.556;13.384;2022-11-09T01:25:28;5.90;;;2.50;;
10162;SDS011;5123;52.556;13.384;2022-11-09T01:28:01;3.20;;;2.90;;
10162;SDS011;5123;52.556;13.384;2022-11-09T01:30:34;2.90;;;2.60;;
10162;SDS011;5123;52.556;13.384;2022-11-09T01:33:08;3.67;;;2.77;;
10162;SDS011;5123;52.556;13.384;2022-11-09T01:35:42;4.30;;;2.77;;
10162;SDS011;5123;52.556;13.384;2022-11-09T01:38:16;3.07;;;2.70;;
10162;SDS011;5123;52.556;13.384;2022-11-09T01:40:49;3.50;;;2.93;;
10162;SDS011;5123;52.556;13.384;2022-11-09T01:43:22;3.47;;;3.17;;
10162;SDS011;5123;52.556;13.384;2022-11-09T01:45:57;3.63;;;2.73;;
10162;SDS011;5123;52.556;13.384;2022-11-09T01:48:32;2.83;;;2.53;;
10162;SDS011;5123;52.556;13.384;2022-11-09T01:51:09;3.00;;;2.73;;
10162;SDS011;5123;52.556;13.384;2022-11-09T01:53:44;3.50;;;2.97;;
10162;SDS011;5123;52.556;13.384;2022-11-09T01:56:18;3.87;;;2.80;;
10162;SDS011;5123;52.556;13.384;2022-11-09T01:58:53;3.23;;;2.93;;
10162;SDS011;5123;52.556;13.384;2022-11-09T02:01:26;4.10;;;2.90;;
10162;SDS011;5123;52.556;13.384;2022-11-09T02:04:00;2.60;;;2.40;;
10162;SDS011;5123;52.556;13.384;2022-11-09T02:06:35;3.00;;;2.60;;
10162;SDS011;5123;52.556;13.384;2022-11-09T02:09:10;4.07;;;2.67;;
10162;SDS011;5123;52.556;13.384;2022-11-09T02:11:43;4.97;;;2.97;;
10162;SDS011;5123;52.556;13.384;2022-11-09T02:14:16;3.70;;;2.90;;
10162;SDS011;5123;52.556;13.384;2022-11-09T02:16:52;2.70;;;2.50;;
10162;SDS011;5123;52.556;13.384;2022-11-09T02:19:24;3.60;;;2.97;;
10162;SDS011;5123;52.556;13.384;2022-11-09T02:21:58;6.07;;;2.90;;
10162;SDS011;5123;52.556;13.384;2022-11-09T02:24:34;3.47;;;3.00;;
10162;SDS011;5123;52.556;13.384;2022-11-09T02:27:07;5.77;;;2.87;;
10162;SDS011;5123;52.556;13.384;2022-11-09T02:29:40;5.27;;;3.10;;
10162;SDS011;5123;52.556;13.384;2022-11-09T02:32:15;3.53;;;3.20;;
10162;SDS011;5123;52.556;13.384;2022-11-09T02:34:49;7.00;;;2.87;;
10162;SDS011;5123;52.556;13.384;2022-11-09T02:37:27;6.17;;;3.17;;
10162;SDS011;5123;52.556;13.384;2022-11-09T02:40:00;4.23;;;2.97;;
10162;SDS011;5123;52.556;13.384;2022-11-09T02:42:34;2.97;;;2.33;;
10162;SDS011;5123;52.556;13.384;2022-11-09T02:45:07;4.13;;;2.73;;
10162;SDS011;5123;52.556;13.384;2022-11-09T02:47:40;3.73;;;2.97;;
10162;SDS011;5123;52.556;13.384;2022-11-09T02:50:12;3.80;;;3.27;;
10162;SDS011;5123;52.556;13.384;2022-11-09T02:52:47;3.70;;;3.00;;
10162;SDS011;5123;52.556;13.384;2022-11-09T02:55:20;3.67;;;2.93;;
10162;SDS011;5123;52.556;13.384;2022-11-09T02:57:52;4.57;;;3.57;;
10162;SDS011;5123;52.556;13.384;2022-11-09T03:00:25;3.93;;;2.80;;
10162;SDS011;5123;52.556;13.384;2022-11-09T03:02:58;3.57;;;3.13;;
10162;SDS011;5123;52.556;13.384;2022-11-09T03:05:31;4.27;;;2.80;;
10162;SDS011;5123;52.556;13.384;2022-11-09T03:08:05;3.13;;;2.83;;
10162;SDS011;5123;52.556;13.384;2022-11-09T03:10:37;4.23;;;3.17;;
10162;SDS011;5123;52.556;13.384;2022-11-09T03:13:10;3.40;;;3.10;;
10162;SDS011;5123;52.556;13.384;2022-11-09T03:15:45;4.80;;;3.13;;
10162;SDS011;5123;52.556;13.384;2022-11-09T03:18:17;4.77;;;2.90;;
10162;SDS011;5123;52.556;13.384;2022-11-09T03:20:51;4.00;;;2.93;;
10162;SDS011;5123;52.556;13.384;2022-11-09T03:23:25;3.43;;;3.00;;
10162;SDS011;5123;52.556;13.384;2022-11-09T03:25:58;4.17;;;3.17;;
10162;SDS011;5123;52.556;13.384;2022-11-09T03:28:31;3.57;;;2.83;;
10162;SDS011;5123;52.556;13.384;2022-11-09T03:31:03;5.20;;;3.17;;
10162;SDS011;5123;52.556;13.384;2022-11-09T03:33:38;3.27;;;2.33;;
10162;SDS011;5123;52.556;13.384;2022-11-09T03:36:11;3.53;;;3.20;;
10162;SDS011;5123;52.556;13.384;2022-11-09T03:38:46;3.53;;;2.60;;
10162;SDS011;5123;52.556;13.384;2022-11-09T03:41:19;3.40;;;3.07;;
10162;SDS011;5123;52.556;13.384;2022-11-09T03:43:51;3.20;;;2.90;;
10162;SDS011;5123;52.556;13.384;2022-11-09T03:46:24;2.53;;;2.33;;
10162;SDS011;5123;52.556;13.384;2022-11-09T03:48:57;3.77;;;2.37;;
10162;SDS011;5123;52.556;13.384;2022-11-09T03:51:30;5.90;;;3.17;;
10162;SDS011;5123;52.556;13.384;2022-11-09T03:54:04;3.37;;;2.50;;
10162;SDS011;5123;52.556;13.384;2022-11-09T03:56:37;3.20;;;2.90;;
10162;SDS011;5123;52.556;13.384;2022-11-09T03:59:12;3.97;;;2.83;;
10162;SDS011;5123;52.556;13.384;2022-11-09T04:01:45;3.70;;;3.03;;
10162;SDS011;5123;52.556;13.384;2022-11-09T04:04:18;4.80;;;3.30;;
10162;SDS011;5123;52.556;13.384;2022-11-09T04:06:51;3.67;;;2.80;;
10162;SDS011;5123;52.556;13.384;2022-11-09T04:09:25;3.90;;;3.07;;
10162;SDS011;5123;52.556;13.384;2022-11-09T04:11:58;3.33;;;2.37;;
10162;SDS011;5123;52.556;13.384;2022-11-09T04:14:30;3.33;;;2.63;;
10162;SDS011;5123;52.556;13.384;2022-11-09T04:17:05;5.10;;;2.90;;
10162;SDS011;5123;52.556;13.384;2022-11-09T04:19:37;3.17;;;2.80;;
10162;SDS011;5123;52.556;13.384;2022-11-09T04:22:13;4.60;;;3.00;;
10162;SDS011;5123;52.556;13.384;2022-11-09T04:24:47;2.93;;;2.60;;
10162;SDS011;5123;52.556;13.384;2022-11-09T04:27:19;4.07;;;2.97;;
10162;SDS011;5123;52.556;13.384;2022-11-09T04:29:52;4.73;;;2.80;;
10162;SDS011;5123;52.556;13.384;2022-11-09T04:32:27;2.93;;;2.63;;
10162;SDS011;5123;52.556;13.384;2022-11-09T04:35:01;3.60;;;3.00;;
10162;SDS011;5123;52.556;13.384;2022-11-09T04:37:34;7.13;;;3.03;;
10162;SDS011;5123;52.556;13.384;2022-11-09T04:40:09;7.20;;;2.90;;
10162;SDS011;5123;52.556;13.384;2022-11-09T04:42:42;3.80;;;2.83;;
10162;SDS011;5123;52.556;13.384;2022-11-09T04:45:15;4.67;;;2.83;;
10162;SDS011;5123;52.556;13.384;2022-11-09T04:47:50;4.17;;;3.23;;
10162;SDS011;5123;52.556;13.384;2022-11-09T04:50:23;3.53;;;3.23;;
10162;SDS011;5123;52.556;13.384;2022-11-09T04:53:02;4.70;;;3.53;;
10162;SDS011;5123;52.556;13.384;2022-11-09T04:55:51;3.33;;;2.60;;
10162;SDS011;5123;52.556;13.384;2022-11-09T04:58:23;3.63;;;3.07;;
10162;SDS011;5123;52.556;13.384;2022-11-09T05:01:00;5.67;;;3.47;;
10162;SDS011;5123;52.556;13.384;2022-11-09T05:03:33;4.93;;;3.27;;
10162;SDS011;5123;52.556;13.384;2022-11-09T05:06:06;4.37;;;2.90;;
10162;SDS011;5123;52.556;13.384;2022-11-09T05:08:52;4.57;;;3.10;;
10162;SDS011;5123;52.556;13.384;2022-11-09T05:11:26;4.20;;;3.30;;
10162;SDS011;5123;52.556;13.384;2022-11-09T05:13:59;3.63;;;3.07;;
10162;SDS011;5123;52.556;13.384;2022-11-09T05:16:32;6.50;;;3.20;;
10162;SDS011;5123;52.556;13.384;2022-11-09T05:19:04;3.80;;;2.83;;
10162;SDS011;5123;52.556;13.384;2022-11-09T05:21:37;4.23;;;3.40;;
10162;SDS011;5123;52.556;13.384;2022-11-09T05:24:10;2.97;;;2.73;;
10162;SDS011;5123;52.556;13.384;2022-11-09T05:26:44;4.40;;;3.07;;
10162;SDS011;5123;52.556;13.384;2022-11-09T05:29:16;4.50;;;3.00;;
10162;SDS011;5123;52.556;13.384;2022-11-09T05:31:50;3.13;;;2.83;;
10162;SDS011;5123;52.556;13.384;2022-11-09T05:34:23;3.07;;;2.77;;
10162;SDS011;5123;52.556;13.384;2022-11-09T05:36:56;4.03;;;3.13;;
10162;SDS011;5123;52.556;13.384;2022-11-09T05:39:34;3.47;;;3.10;;
10162;SDS011;5123;52.556;13.384;2022-11-09T05:42:10;4.23;;;3.30;;
10162;SDS011;5123;52.556;13.384;2022-11-09T05:44:42;3.93;;;3.10;;
10162;SDS011;5123;52.556;13.384;2022-11-09T05:47:15;3.70;;;3.00;;
10162;SDS011;5123;52.556;13.384;2022-11-09T05:49:49;4.07;;;3.03;;
10162;SDS011;5123;52.556;13.384;2022-11-09T05:52:22;3.83;;;3.40;;
10162;SDS011;5123;52.556;13.384;2022-11-09T05:54:54;4.50;;;3.27;;
10162;SDS011;5123;52.556;13.384;2022-11-09T05:57:28;3.47;;;3.10;;
10162;SDS011;5123;52.556;13.384;2022-11-09T06:00:06;3.93;;;3.53;;
10162;SDS011;5123;52.556;13.384;2022-11-09T06:02:41;3.63;;;3.23;;
10162;SDS011;5123;52.556;13.384;2022-11-09T06:05:14;4.97;;;3.50;;
10162;SDS011;5123;52.556;13.384;2022-11-09T06:07:47;4.43;;;3.30;;
10162;SDS011;5123;52.556;13.384;2022-11-09T06:10:20;4.00;;;3.60;;
10162;SDS011;5123;52.556;13.384;2022-11-09T06:12:54;4.23;;;3.27;;
10162;SDS011;5123;52.556;13.384;2022-11-09T06:15:26;3.87;;;3.27;;
10162;SDS011;5123;52.556;13.384;2022-11-09T06:18:13;3.77;;;3.40;;
10162;SDS011;5123;52.556;13.384;2022-11-09T06:20:45;5.17;;;3.67;;
10162;SDS011;5123;52.556;13.384;2022-11-09T06:23:18;5.73;;;3.23;;
10162;SDS011;5123;52.556;13.384;2022-11-09T06:25:56;4.20;;;3.60;;
10162;SDS011;5123;52.556;13.384;2022-11-09T06:28:30;4.13;;;3.30;;
10162;SDS011;5123;52.556;13.384;2022-11-09T06:31:08;4.13;;;3.43;;
10162;SDS011;5123;52.556;13.384;2022-11-09T06:33:41;8.60;;;3.60;;
10162;SDS011;5123;52.556;13.384;2022-11-09T06:36:16;5.23;;;3.50;;
10162;SDS011;5123;52.556;13.384;2022-11-09T06:38:49;4.10;;;3.70;;
10162;SDS011;5123;52.556;13.384;2022-11-09T06:41:22;5.13;;;3.30;;
10162;SDS011;5123;52.556;13.384;2022-11-09T06:43:56;5.23;;;3.60;;
10162;SDS011;5123;52.556;13.384;2022-11-09T06:46:29;4.57;;;3.50;;
10162;SDS011;5123;52.556;13.384;2022-11-09T06:49:02;5.90;;;3.93;;
10162;SDS011;5123;52.556;13.384;2022-11-09T06:51:34;5.13;;;3.83;;
10162;SDS011;5123;52.556;13.384;2022-11-09T06:54:17;5.77;;;3.50;;
10162;SDS011;5123;52.556;13.384;2022-11-09T06:56:52;3.90;;;3.07;;
10162;SDS011;5123;52.556;13.384;2022-11-09T06:59:26;5.23;;;3.40;;
10162;SDS011;5123;52.556;13.384;2022-11-09T07:01:59;6.73;;;3.97;;
10162;SDS011;5123;52.556;13.384;2022-11-09T07:04:32;5.43;;;3.97;;
10162;SDS011;5123;52.556;13.384;2022-11-09T07:07:05;9.60;;;4.20;;
10162;SDS011;5123;52.556;13.384;2022-11-09T07:09:41;6.97;;;3.73;;
10162;SDS011;5123;52.556;13.384;2022-11-09T07:12:14;5.27;;;4.00;;
10162;SDS011;5123;52.556;13.384;2022-11-09T07:14:48;5.57;;;3.77;;
10162;SDS011;5123;52.556;13.384;2022-11-09T07:17:21;7.47;;;4.67;;
10162;SDS011;5123;52.556;13.384;2022-11-09T07:19:53;4.57;;;3.70;;
10162;SDS011;5123;52.556;13.384;2022-11-09T07:22:26;5.33;;;3.93;;
10162;SDS011;5123;52.556;13.384;2022-11-09T07:25:00;6.77;;;4.40;;
10162;SDS011;5123;52.556;13.384;2022-11-09T07:27:32;4.97;;;4.30;;
10162;SDS011;5123;52.556;13.384;2022-11-09T07:30:07;6.33;;;4.77;;
10162;SDS011;5123;52.556;13.384;2022-11-09T07:32:40;5.60;;;4.20;;
10162;SDS011;5123;52.556;13.384;2022-11-09T07:35:33;4.47;;;4.07;;
10162;SDS011;5123;52.556;13.384;2022-11-09T07:38:06;6.47;;;4.07;;
10162;SDS011;5123;52.556;13.384;2022-11-09T07:40:38;8.60;;;4.50;;
10162;SDS011;5123;52.556;13.384;2022-11-09T07:43:13;5.97;;;4.13;;
10162;SDS011;5123;52.556;13.384;2022-11-09T07:45:49;6.93;;;4.10;;
10162;SDS011;5123;52.556;13.384;2022-11-09T07:48:22;5.03;;;4.00;;
10162;SDS011;5123;52.556;13.384;2022-11-09T07:50:55;5.70;;;4.03;;
10162;SDS011;5123;52.556;13.384;2022-11-09T07:53:28;7.10;;;4.40;;
10162;SDS011;5123;52.556;13.384;2022-11-09T07:56:02;6.37;;;5.00;;
10162;SDS011;5123;52.556;13.384;2022-11-09T07:58:35;6.90;;;5.27;;
10162;SDS011;5123;52.556;13.384;2022-11-09T08:01:09;6.73;;;4.73;;
10162;SDS011;5123;52.556;13.384;2022-11-09T08:03:42;5.93;;;4.60;;
10162;SDS011;5123;52.556;13.384;2022-11-09T08:06:15;8.23;;;5.30;;
10162;SDS011;5123;52.556;13.384;2022-11-09T08:08:49;6.00;;;4.70;;
10162;SDS011;5123;52.556;13.384;2022-11-09T08:11:22;5.23;;;4.60;;
10162;SDS011;5123;52.556;13.384;2022-11-09T08:13:55;8.27;;;4.57;;
10162;SDS011;5123;52.556;13.384;2022-11-09T08:16:34;5.30;;;4.30;;
10162;SDS011;5123;52.556;13.384;2022-11-09T08:19:08;5.03;;;4.53;;
10162;SDS011;5123;52.556;13.384;2022-11-09T08:21:41;7.23;;;4.33;;
10162;SDS011;5123;52.556;13.384;2022-11-09T08:24:14;5.83;;;4.43;;
10162;SDS011;5123;52.556;13.384;2022-11-09T08:26:48;7.00;;;4.20;;
10162;SDS011;5123;52.556;13.384;2022-11-09T08:29:21;4.63;;;4.13;;
10162;SDS011;5123;52.556;13.384;2022-11-09T08:31:55;6.17;;;4.40;;
10162;SDS011;5123;52.556;13.384;2022-11-09T08:34:30;6.37;;;4.00;;
10162;SDS011;5123;52.556;13.384;2022-11-09T08:37:05;4.50;;;4.03;;
10162;SDS011;5123;52.556;13.384;2022-11-09T08:39:38;5.70;;;3.90;;
10162;SDS011;5123;52.556;13.384;2022-11-09T08:42:11;5.00;;;4.60;;
10162;SDS011;5123;52.556;13.384;2022-11-09T08:44:45;5.57;;;4.27;;
10162;SDS011;5123;52.556;13.384;2022-11-09T08:47:19;5.23;;;4.23;;
10162;SDS011;5123;52.556;13.384;2022-11-09T08:49:52;18.90;;;12.47;;
10162;SDS011;5123;52.556;13.384;2022-11-09T08:52:24;29.43;;;19.27;;
10162;SDS011;5123;52.556;13.384;2022-11-09T08:54:57;9.90;;;7.20;;
10162;SDS011;5123;52.556;13.384;2022-11-09T08:57:30;9.67;;;4.50;;
10162;SDS011;5123;52.556;13.384;2022-11-09T09:00:03;5.23;;;4.37;;
10162;SDS011;5123;52.556;13.384;2022-11-09T09:02:37;5.17;;;4.40;;
10162;SDS011;5123;52.556;13.384;2022-11-09T09:05:10;5.43;;;4.60;;
10162;SDS011;5123;52.556;13.384;2022-11-09T09:07:43;5.00;;;4.50;;
10162;SDS011;5123;52.556;13.384;2022-11-09T09:10:15;5.97;;;4.57;;
10162;SDS011;5123;52.556;13.384;2022-11-09T09:12:48;5.37;;;4.87;;
10162;SDS011;5123;52.556;13.384;2022-11-09T09:15:21;4.60;;;4.17;;
10162;SDS011;5123;52.556;13.384;2022-11-09T09:17:59;7.33;;;5.17;;
10162;SDS011;5123;52.556;13.384;2022-11-09T09:20:32;5.13;;;4.50;;
10162;SDS011;5123;52.556;13.384;2022-11-09T09:23:04;5.90;;;4.53;;
10162;SDS011;5123;52.556;13.384;2022-11-09T09:25:37;7.00;;;4.57;;
10162;SDS011;5123;52.556;13.384;2022-11-09T09:28:10;6.87;;;4.97;;
10162;SDS011;5123;52.556;13.384;2022-11-09T09:30:42;6.23;;;4.67;;
10162;SDS011;5123;52.556;13.384;2022-11-09T09:33:16;5.50;;;4.90;;
10162;SDS011;5123;52.556;13.384;2022-11-09T09:35:53;5.87;;;4.87;;
10162;SDS011;5123;52.556;13.384;2022-11-09T09:38:27;6.50;;;4.60;;
10162;SDS011;5123;52.556;13.384;2022-11-09T09:41:00;4.83;;;4.30;;
10162;SDS011;5123;52.556;13.384;2022-11-09T09:43:34;5.37;;;4.83;;
10162;SDS011;5123;52.556;13.384;2022-11-09T09:46:15;5.80;;;4.60;;
10162;SDS011;5123;52.556;13.384;2022-11-09T09:48:52;6.47;;;4.90;;
10162;SDS011;5123;52.556;13.384;2022-11-09T09:51:27;5.57;;;5.00;;
10162;SDS011;5123;52.556;13.384;2022-11-09T09:54:02;7.60;;;4.67;;
10162;SDS011;5123;52.556;13.384;2022-11-09T09:56:38;7.30;;;5.63;;
10162;SDS011;5123;52.556;13.384;2022-11-09T09:59:12;6.90;;;5.60;;
10162;SDS011;5123;52.556;13.384;2022-11-09T10:01:46;5.30;;;4.80;;
10162;SDS011;5123;52.556;13.384;2022-11-09T10:04:23;6.67;;;4.83;;
10162;SDS011;5123;52.556;13.384;2022-11-09T10:07:00;6.53;;;4.70;;
10162;SDS011;5123;52.556;13.384;2022-11-09T10:09:46;4.90;;;4.27;;
10162;SDS011;5123;52.556;13.384;2022-11-09T10:12:26;5.90;;;4.90;;
10162;SDS011;5123;52.556;13.384;2022-11-09T10:15:04;5.23;;;4.50;;
10162;SDS011;5123;52.556;13.384;2022-11-09T10:17:40;5.33;;;4.83;;
10162;SDS011;5123;52.556;13.384;2022-11-09T10:20:32;7.93;;;4.97;;
10162;SDS011;5123;52.556;13.384;2022-11-09T10:23:14;8.90;;;6.30;;
10162;SDS011;5123;52.556;13.384;2022-11-09T10:25:52;11.07;;;9.00;;
10162;SDS011;5123;52.556;13.384;2022-11-09T10:28:36;7.07;;;6.37;;
10162;SDS011;5123;52.556;13.384;2022-11-09T10:31:39;5.83;;;5.23;;
10162;SDS011;5123;52.556;13.384;2022-11-09T10:34:15;7.20;;;5.23;;
10162;SDS011;5123;52.556;13.384;2022-11-09T10:36:55;6.70;;;5.00;;
10162;SDS011;5123;52.556;13.384;2022-11-09T10:39:33;10.20;;;7.03;;
10162;SDS011;5123;52.556;13.384;2022-11-09T10:42:08;7.03;;;5.53;;
10162;SDS011;5123;52.556;13.384;2022-11-09T10:44:41;5.97;;;5.10;;
10162;SDS011;5123;52.556;13.384;2022-11-09T10:47:14;8.67;;;5.97;;
10162;SDS011;5123;52.556;13.384;2022-11-09T10:50:03;7.13;;;6.10;;
10162;SDS011;5123;52.556;13.384;2022-11-09T10:52:38;7.47;;;5.33;;
10162;SDS011;5123;52.556;13.384;2022-11-09T10:55:21;8.10;;;5.67;;
10162;SDS011;5123;52.556;13.384;2022-11-09T10:57:56;9.20;;;5.57;;
10162;SDS011;5123;52.556;13.384;2022-11-09T11:00:29;9.93;;;6.17;;
10162;SDS011;5123;52.556;13.384;2022-11-09T11:03:09;6.40;;;5.03;;
10162;SDS011;5123;52.556;13.384;2022-11-09T11:05:42;8.07;;;6.23;;
10162;SDS011;5123;52.556;13.384;2022-11-09T11:08:24;10.80;;;9.70;;
10162;SDS011;5123;52.556;13.384;2022-11-09T11:11:07;7.97;;;5.10;;
10162;SDS011;5123;52.556;13.384;2022-11-09T11:14:08;5.73;;;4.63;;
10162;SDS011;5123;52.556;13.384;2022-11-09T11:16:41;6.07;;;4.70;;
10162;SDS011;5123;52.556;13.384;2022-11-09T11:19:31;5.23;;;4.17;;
10162;SDS011;5123;52.556;13.384;2022-11-09T11:22:13;6.07;;;4.07;;
10162;SDS011;5123;52.556;13.384;2022-11-09T11:24:53;3.60;;;3.30;;
10162;SDS011;5123;52.556;13.384;2022-11-09T11:27:27;3.80;;;3.20;;
10162;SDS011;5123;52.556;13.384;2022-11-09T11:30:03;5.37;;;3.50;;
10162;SDS011;5123;52.556;13.384;2022-11-09T11:32:36;4.13;;;3.70;;
10162;SDS011;5123;52.556;13.384;2022-11-09T11:35:12;4.73;;;3.27;;
10162;SDS011;5123;52.556;13.384;2022-11-09T11:37:47;6.43;;;5.27;;
10162;SDS011;5123;52.556;13.384;2022-11-09T11:40:25;8.63;;;5.80;;
10162;SDS011;5123;52.556;13.384;2022-11-09T11:43:12;4.67;;;4.23;;
10162;SDS011;5123;52.556;13.384;2022-11-09T11:45:50;5.03;;;3.20;;
10162;SDS011;5123;52.556;13.384;2022-11-09T11:48:27;3.63;;;2.83;;
10162;SDS011;5123;52.556;13.384;2022-11-09T11:51:02;3.83;;;2.77;;
10162;SDS011;5123;52.556;13.384;2022-11-09T11:53:47;3.70;;;3.30;;
10162;SDS011;5123;52.556;13.384;2022-11-09T11:56:25;7.03;;;4.73;;
10162;SDS011;5123;52.556;13.384;2022-11-09T11:59:13;7.13;;;6.03;;
10162;SDS011;5123;52.556;13.384;2022-11-09T12:01:57;4.80;;;4.20;;
10162;SDS011;5123;52.556;13.384;2022-11-09T12:04:39;2.87;;;2.50;;
10162;SDS011;5123;52.556;13.384;2022-11-09T12:07:19;3.27;;;2.97;;
10162;SDS011;5123;52.556;13.384;2022-11-09T12:09:58;4.77;;;3.20;;
10162;SDS011;5123;52.556;13.384;2022-11-09T12:12:39;3.97;;;2.60;;
10162;SDS011;5123;52.556;13.384;2022-11-09T12:15:20;4.83;;;3.10;;
10162;SDS011;5123;52.556;13.384;2022-11-09T12:17:57;5.60;;;2.90;;
10162;SDS011;5123;52.556;13.384;2022-11-09T12:20:33;3.73;;;3.10;;
10162;SDS011;5123;52.556;13.384;2022-11-09T12:23:26;2.90;;;2.70;;
10162;SDS011;5123;52.556;13.384;2022-11-09T12:26:04;4.90;;;2.77;;
10162;SDS011;5123;52.556;13.384;2022-11-09T12:28:53;3.50;;;3.20;;
10162;SDS011;5123;52.556;13.384;2022-11-09T12:31:31;3.90;;;3.33;;
10162;SDS011;5123;52.556;13.384;2022-11-09T12:34:10;3.83;;;3.03;;
10162;SDS011;5123;52.556;13.384;2022-11-09T12:36:51;2.97;;;2.73;;
10162;SDS011;5123;52.556;13.384;2022-11-09T12:39:26;3.23;;;2.77;;
10162;SDS011;5123;52.556;13.384;2022-11-09T12:42:02;2.93;;;2.63;;
10162;SDS011;5123;52.556;13.384;2022-11-09T12:44:38;3.00;;;2.70;;
10162;SDS011;5123;52.556;13.384;2022-11-09T12:47:12;3.43;;;2.90;;
10162;SDS011;5123;52.556;13.384;2022-11-09T12:49:46;3.63;;;2.90;;
10162;SDS011;5123;52.556;13.384;2022-11-09T12:52:22;2.97;;;2.70;;
10162;SDS011;5123;52.556;13.384;2022-11-09T12:54:58;4.67;;;3.53;;
10162;SDS011;5123;52.556;13.384;2022-11-09T12:57:32;6.80;;;4.30;;
10162;SDS011;5123;52.556;13.384;2022-11-09T13:00:13;4.73;;;3.53;;
10162;SDS011;5123;52.556;13.384;2022-11-09T13:03:00;7.00;;;3.50;;
10162;SDS011;5123;52.556;13.384;2022-11-09T13:05:34;5.27;;;3.10;;
10162;SDS011;5123;52.556;13.384;2022-11-09T13:08:12;4.33;;;3.73;;
10162;SDS011;5123;52.556;13.384;2022-11-09T13:10:48;5.67;;;4.93;;
10162;SDS011;5123;52.556;13.384;2022-11-09T13:13:38;7.17;;;4.90;;
10162;SDS011;5123;52.556;13.384;2022-11-09T13:19:00;5.27;;;2.97;;
10162;SDS011;5123;52.556;13.384;2022-11-09T13:21:34;4.40;;;2.90;;
10162;SDS011;5123;52.556;13.384;2022-11-09T13:27:02;2.93;;;2.70;;
10162;SDS011;5123;52.556;13.384;2022-11-09T13:29:46;5.53;;;2.90;;
10162;SDS011;5123;52.556;13.384;2022-11-09T13:32:26;4.93;;;2.60;;
10162;SDS011;5123;52.556;13.384;2022-11-09T13:35:01;3.43;;;2.50;;
10162;SDS011;5123;52.556;13.384;2022-11-09T13:37:36;4.30;;;3.40;;
10162;SDS011;5123;52.556;13.384;2022-11-09T13:43:01;3.30;;;2.60;;
10162;SDS011;5123;52.556;13.384;2022-11-09T13:45:36;7.97;;;3.77;;
10162;SDS011;5123;52.556;13.384;2022-11-09T13:48:19;5.80;;;3.87;;
10162;SDS011;5123;52.556;13.384;2022-11-09T13:50:56;5.23;;;3.60;;
10162;SDS011;5123;52.556;13.384;2022-11-09T13:53:30;4.53;;;3.70;;
10162;SDS011;5123;52.556;13.384;2022-11-09T13:56:24;14.47;;;8.97;;
10162;SDS011;5123;52.556;13.384;2022-11-09T13:59:01;16.93;;;9.30;;
10162;SDS011;5123;52.556;13.384;2022-11-09T14:01:48;18.60;;;12.73;;
10162;SDS011;5123;52.556;13.384;2022-11-09T14:04:23;15.17;;;10.07;;
10162;SDS011;5123;52.556;13.384;2022-11-09T14:07:01;10.83;;;7.70;;
10162;SDS011;5123;52.556;13.384;2022-11-09T14:09:37;4.83;;;4.10;;
10162;SDS011;5123;52.556;13.384;2022-11-09T14:12:17;6.63;;;3.37;;
10162;SDS011;5123;52.556;13.384;2022-11-09T14:15:07;4.13;;;3.33;;
10162;SDS011;5123;52.556;13.384;2022-11-09T14:17:49;5.20;;;3.27;;
10162;SDS011;5123;52.556;13.384;2022-11-09T14:20:26;6.10;;;3.50;;
10162;SDS011;5123;52.556;13.384;2022-11-09T14:23:01;5.00;;;3.90;;
10162;SDS011;5123;52.556;13.384;2022-11-09T14:25:34;3.57;;;3.17;;
10162;SDS011;5123;52.556;13.384;2022-11-09T14:28:17;4.17;;;2.80;;
10162;SDS011;5123;52.556;13.384;2022-11-09T14:30:53;3.00;;;2.70;;
10162;SDS011;5123;52.556;13.384;2022-11-09T14:33:28;4.27;;;2.63;;
10162;SDS011;5123;52.556;13.384;2022-11-09T14:36:03;5.37;;;3.10;;
10162;SDS011;5123;52.556;13.384;2022-11-09T14:38:41;8.67;;;5.23;;
10162;SDS011;5123;52.556;13.384;2022-11-09T14:41:18;7.80;;;5.93;;
10162;SDS011;5123;52.556;13.384;2022-11-09T14:43:53;8.53;;;4.90;;
10162;SDS011;5123;52.556;13.384;2022-11-09T14:46:28;7.37;;;5.53;;
10162;SDS011;5123;52.556;13.384;2022-11-09T14:49:02;12.43;;;8.27;;
10162;SDS011;5123;52.556;13.384;2022-11-09T14:51:36;9.33;;;6.03;;
10162;SDS011;5123;52.556;13.384;2022-11-09T14:54:11;9.53;;;5.33;;
10162;SDS011;5123;52.556;13.384;2022-11-09T14:56:49;7.63;;;6.40;;
10162;SDS011;5123;52.556;13.384;2022-11-09T14:59:27;6.10;;;4.63;;
10162;SDS011;5123;52.556;13.384;2022-11-09T15:02:04;6.93;;;5.47;;
10162;SDS011;5123;52.556;13.384;2022-11-09T15:04:51;7.30;;;5.33;;
10162;SDS011;5123;52.556;13.384;2022-11-09T15:07:25;9.77;;;6.17;;
10162;SDS011;5123;52.556;13.384;2022-11-09T15:09:59;8.13;;;6.37;;
10162;SDS011;5123;52.556;13.384;2022-11-09T15:12:33;8.80;;;6.67;;
10162;SDS011;5123;52.556;13.384;2022-11-09T15:15:06;8.07;;;5.90;;
10162;SDS011;5123;52.556;13.384;2022-11-09T15:17:43;12.73;;;5.70;;
10162;SDS011;5123;52.556;13.384;2022-11-09T15:20:23;9.50;;;5.70;;
10162;SDS011;5123;52.556;13.384;2022-11-09T15:22:58;6.90;;;4.77;;
10162;SDS011;5123;52.556;13.384;2022-11-09T15:25:36;5.40;;;4.17;;
10162;SDS011;5123;52.556;13.384;2022-11-09T15:28:24;9.00;;;5.67;;
10162;SDS011;5123;52.556;13.384;2022-11-09T15:31:09;7.10;;;5.07;;
10162;SDS011;5123;52.556;13.384;2022-11-09T15:33:46;9.90;;;5.90;;
10162;SDS011;5123;52.556;13.384;2022-11-09T15:36:23;9.47;;;6.87;;
10162;SDS011;5123;52.556;13.384;2022-11-09T15:39:06;8.50;;;6.07;;
10162;SDS011;5123;52.556;13.384;2022-11-09T15:41:41;11.00;;;8.00;;
10162;SDS011;5123;52.556;13.384;2022-11-09T15:44:14;14.50;;;9.57;;
10162;SDS011;5123;52.556;13.384;2022-11-09T15:46:48;9.13;;;5.57;;
10162;SDS011;5123;52.556;13.384;2022-11-09T15:49:23;9.33;;;4.93;;
10162;SDS011;5123;52.556;13.384;2022-11-09T15:51:58;7.43;;;5.53;;